Time;durP1;ratioP1;P1;durP2;ratioP2;P2;SDS_P1;SDS_P2;PMS_P1;PMS_P2;Temp;Humidity;BMP_temperature;BMP_pressure;BME280_temperature;BME280_humidity;BME280_pressure;Samples;Min_cycle;Max_cycle;Signal;HPM_P1;HPM_P2
2022/07/12 00:01:24;;;;;;;;;;;10.60;99.90;;;;;;5014495;28;20016;-75
2022/07/12 00:03:51;;;;;;;;;;;10.50;99.90;;;;;;5014380;28;20346;-74
2022/07/12 00:06:18;;;;;;;;;;;10.50;99.90;;;;;;5014478;28;19989;-75
2022/07/12 00:08:45;;;;;;;;;;;10.60;99.90;;;;;;5014256;28;19952;-76
2022/07/12 00:11:11;;;;;;;;;;;10.60;99.90;;;;;;5014136;28;19926;-74
2022/07/12 00:13:38;;;;;;;;;;;10.70;99.90;;;;;;5014214;28;19910;-77
2022/07/12 00:16:05;;;;;;;;;;;10.80;99.90;;;;;;5014145;28;19917;-76
2022/07/12 00:18:32;;;;;;;;;;;10.90;99.90;;;;;;5014106;28;19913;-75
2022/07/12 00:20:58;;;;;;;;;;;11.00;99.90;;;;;;5013989;28;20356;-76
2022/07/12 00:23:25;;;;;;;;;;;11.00;99.90;;;;;;5013932;28;19910;-77
2022/07/12 00:25:52;;;;;;;;;;;11.00;99.90;;;;;;5013808;28;19917;-76
2022/07/12 00:28:19;;;;;;;;;;;11.00;99.90;;;;;;5014319;28;20276;-74
2022/07/12 00:30:46;;;;;;;;;;;11.10;99.90;;;;;;5013862;28;19988;-77
2022/07/12 00:33:12;;;;;;;;;;;11.10;99.90;;;;;;5028964;28;20070;-76
2022/07/12 00:35:39;;;;;;;;;;;11.20;99.90;;;;;;5013906;28;19931;-76
2022/07/12 00:38:06;;;;;;;;;;;11.20;99.90;;;;;;5012573;28;19909;-76
2022/07/12 00:40:32;;;;;;;;;;;11.30;99.90;;;;;;5013599;28;19913;-76
2022/07/12 00:42:59;;;;;;;;;;;11.40;99.90;;;;;;5013611;28;19917;-74
2022/07/12 00:45:26;;;;;;;;;;;11.40;99.90;;;;;;5013734;28;19910;-75
2022/07/12 00:47:52;;;;;;;;;;;11.40;99.90;;;;;;5013602;28;20431;-75
2022/07/12 00:50:21;;;;;;;;;;;11.40;99.90;;;;;;5013669;28;20311;-75
2022/07/12 00:52:49;;;;;;;;;;;11.40;99.90;;;;;;5013625;28;19913;-74
2022/07/12 00:55:17;;;;;;;;;;;11.50;99.90;;;;;;5013363;28;20268;-76
2022/07/12 00:57:44;;;;;;;;;;;11.60;99.90;;;;;;5013622;28;19910;-76
2022/07/12 01:00:18;;;;;;;;;;;11.70;99.90;;;;;;5013650;28;19997;-76
2022/07/12 01:02:47;;;;;;;;;;;11.70;99.90;;;;;;5013616;28;20283;-76
2022/07/12 01:05:14;;;;;;;;;;;11.80;99.90;;;;;;5014498;28;20283;-75
2022/07/12 01:07:40;;;;;;;;;;;11.90;99.90;;;;;;5017629;28;20310;-76
2022/07/12 01:10:08;;;;;;;;;;;12.10;99.90;;;;;;5017367;28;19914;-76
2022/07/12 01:12:37;;;;;;;;;;;12.20;99.90;;;;;;5017645;28;19913;-74
2022/07/12 01:15:08;;;;;;;;;;;12.40;99.90;;;;;;5017276;28;20364;-76
2022/07/12 01:17:35;;;;;;;;;;;12.50;99.90;;;;;;5017460;28;20193;-75
2022/07/12 01:20:05;;;;;;;;;;;12.60;99.90;;;;;;5017319;28;19909;-76
2022/07/12 01:22:33;;;;;;;;;;;12.70;99.90;;;;;;5017655;28;19938;-76
2022/07/12 01:25:01;;;;;;;;;;;13.00;99.90;;;;;;5017180;28;19909;-75
2022/07/12 01:27:28;;;;;;;;;;;13.10;99.90;;;;;;5017274;28;19909;-75
2022/07/12 01:29:55;;;;;;;;;;;13.10;99.90;;;;;;5017206;28;19913;-76
2022/07/12 01:32:25;;;;;;;;;;;13.00;99.90;;;;;;5017173;28;19968;-76
2022/07/12 01:34:59;;;;;;;;;;;12.90;99.90;;;;;;5017059;28;20276;-76
2022/07/12 01:37:29;;;;;;;;;;;12.90;99.90;;;;;;5016933;28;19910;-76
2022/07/12 01:39:57;;;;;;;;;;;12.90;99.90;;;;;;5016956;28;19956;-74
2022/07/12 01:42:25;;;;;;;;;;;13.00;99.90;;;;;;5017131;28;20374;-76
2022/07/12 01:44:53;;;;;;;;;;;13.00;99.90;;;;;;5016579;28;19917;-75
2022/07/12 01:47:20;;;;;;;;;;;12.90;99.90;;;;;;5016779;28;19909;-74
2022/07/12 01:49:47;;;;;;;;;;;12.90;99.90;;;;;;5016773;28;19913;-77
2022/07/12 01:52:14;;;;;;;;;;;12.90;99.90;;;;;;5016917;28;19960;-76
2022/07/12 01:54:42;;;;;;;;;;;12.90;99.90;;;;;;5016619;28;19909;-76
2022/07/12 01:57:08;;;;;;;;;;;12.90;99.90;;;;;;5016693;28;20270;-77
2022/07/12 01:59:36;;;;;;;;;;;12.90;99.90;;;;;;5016515;28;20236;-76
2022/07/12 02:02:03;;;;;;;;;;;12.90;99.90;;;;;;5016585;28;19909;-75
2022/07/12 02:04:30;;;;;;;;;;;13.00;99.90;;;;;;5016506;28;19921;-75
2022/07/12 02:06:57;;;;;;;;;;;12.90;99.90;;;;;;5016368;28;19909;-75
2022/07/12 02:09:24;;;;;;;;;;;12.90;99.90;;;;;;5016515;28;19988;-76
2022/07/12 02:11:50;;;;;;;;;;;12.90;99.90;;;;;;5016484;28;20016;-76
2022/07/12 02:14:20;;;;;;;;;;;12.90;99.90;;;;;;5016453;28;19917;-78
2022/07/12 02:16:47;;;;;;;;;;;13.00;99.90;;;;;;5015590;28;20351;-77
2022/07/12 02:19:15;;;;;;;;;;;13.00;99.90;;;;;;5016160;28;19913;-77
2022/07/12 02:21:42;;;;;;;;;;;13.00;99.90;;;;;;5016326;28;19959;-77
2022/07/12 02:24:09;;;;;;;;;;;13.00;99.90;;;;;;5016084;28;20004;-76
2022/07/12 02:26:37;;;;;;;;;;;13.10;99.90;;;;;;5016114;28;20256;-77
2022/07/12 02:29:04;;;;;;;;;;;13.30;99.90;;;;;;5015719;28;19913;-74
2022/07/12 02:31:31;;;;;;;;;;;13.30;99.90;;;;;;5015978;28;19964;-76
2022/07/12 02:33:58;;;;;;;;;;;13.40;99.90;;;;;;5016160;28;20283;-75
2022/07/12 02:36:25;;;;;;;;;;;13.60;99.90;;;;;;5015814;28;19909;-74
2022/07/12 02:38:52;;;;;;;;;;;13.50;99.90;;;;;;5015615;28;19910;-76
2022/07/12 02:41:19;;;;;;;;;;;13.60;99.90;;;;;;5015810;28;19917;-74
2022/07/12 02:43:45;;;;;;;;;;;13.60;99.90;;;;;;5015978;28;20279;-74
2022/07/12 02:46:13;;;;;;;;;;;13.60;99.90;;;;;;5014973;28;19920;-74
2022/07/12 02:48:40;;;;;;;;;;;13.50;99.90;;;;;;5014828;28;19914;-76
2022/07/12 02:51:07;;;;;;;;;;;13.60;99.90;;;;;;5014717;28;20012;-77
2022/07/12 02:53:34;;;;;;;;;;;13.70;99.90;;;;;;5014901;28;19916;-76
2022/07/12 02:56:01;;;;;;;;;;;13.70;99.90;;;;;;5014947;28;19917;-76
2022/07/12 02:58:28;;;;;;;;;;;13.80;99.90;;;;;;5014781;28;20303;-75
2022/07/12 03:00:55;;;;;;;;;;;13.90;99.90;;;;;;5014535;28;19911;-77
2022/07/12 03:03:21;;;;;;;;;;;13.90;99.90;;;;;;5014757;28;20299;-77
2022/07/12 03:05:48;;;;;;;;;;;13.90;99.90;;;;;;5014691;28;19925;-76
2022/07/12 03:08:15;;;;;;;;;;;13.90;99.90;;;;;;5014750;28;19916;-76
2022/07/12 03:10:42;;;;;;;;;;;14.00;99.90;;;;;;5015048;28;19964;-76
2022/07/12 03:13:09;;;;;;;;;;;14.10;99.90;;;;;;5014953;28;19914;-74
2022/07/12 03:15:36;;;;;;;;;;;14.10;99.90;;;;;;5015220;28;20379;-73
2022/07/12 03:18:03;;;;;;;;;;;14.10;99.90;;;;;;5015220;28;19913;-74
2022/07/12 03:20:30;;;;;;;;;;;14.30;99.90;;;;;;5015100;28;19996;-74
2022/07/12 03:22:57;;;;;;;;;;;14.30;99.90;;;;;;5014857;28;19910;-75
2022/07/12 03:25:24;;;;;;;;;;;14.30;99.90;;;;;;5014999;28;19941;-75
2022/07/12 03:27:51;;;;;;;;;;;14.20;99.90;;;;;;5014645;28;20376;-74
2022/07/12 03:30:18;;;;;;;;;;;14.30;99.90;;;;;;5014823;28;19914;-75
2022/07/12 03:32:45;;;;;;;;;;;14.40;99.90;;;;;;5014655;28;19996;-75
2022/07/12 03:35:11;;;;;;;;;;;14.30;99.90;;;;;;5014648;28;19913;-74
2022/07/12 03:37:41;;;;;;;;;;;14.20;99.90;;;;;;5014637;28;19916;-74
2022/07/12 03:40:08;;;;;;;;;;;14.20;99.90;;;;;;5014798;28;19909;-74
2022/07/12 03:42:35;;;;;;;;;;;14.30;99.90;;;;;;5014635;28;19909;-74
2022/07/12 03:45:02;;;;;;;;;;;14.50;99.90;;;;;;5014534;28;19909;-74
2022/07/12 03:47:28;;;;;;;;;;;14.60;99.90;;;;;;5014751;28;20359;-74
2022/07/12 03:49:58;;;;;;;;;;;14.60;99.90;;;;;;5014725;28;19909;-74
2022/07/12 03:52:24;;;;;;;;;;;14.60;99.90;;;;;;5014746;28;19913;-74
2022/07/12 03:54:51;;;;;;;;;;;14.50;99.90;;;;;;5014596;28;19909;-73
2022/07/12 03:57:18;;;;;;;;;;;14.50;99.90;;;;;;5014567;28;19916;-72
2022/07/12 03:59:45;;;;;;;;;;;14.50;99.90;;;;;;5014354;28;19910;-74
2022/07/12 04:02:12;;;;;;;;;;;14.40;99.90;;;;;;5014502;28;19964;-74
2022/07/12 04:04:39;;;;;;;;;;;14.40;99.90;;;;;;5014442;28;19926;-73
2022/07/12 04:07:06;;;;;;;;;;;14.40;99.90;;;;;;5014123;28;20378;-74
2022/07/12 04:09:33;;;;;;;;;;;14.40;99.90;;;;;;5014189;28;19914;-74
2022/07/12 04:12:00;;;;;;;;;;;14.50;99.90;;;;;;5014262;28;19917;-73
2022/07/12 04:14:28;;;;;;;;;;;14.60;99.90;;;;;;5014233;28;19916;-75
2022/07/12 04:16:55;;;;;;;;;;;14.60;99.90;;;;;;5014103;28;20286;-75
2022/07/12 04:19:27;;;;;;;;;;;14.60;99.90;;;;;;5014239;28;19909;-75
2022/07/12 04:21:57;;;;;;;;;;;14.50;99.90;;;;;;5014265;28;19913;-72
2022/07/12 04:24:24;;;;;;;;;;;14.40;99.90;;;;;;5014189;28;19909;-75
2022/07/12 04:26:50;;;;;;;;;;;14.40;99.90;;;;;;5013865;28;19916;-73
2022/07/12 04:29:17;;;;;;;;;;;14.30;99.90;;;;;;5013963;28;19949;-73
2022/07/12 04:31:44;;;;;;;;;;;14.30;99.90;;;;;;5013737;28;19918;-73
2022/07/12 04:34:11;;;;;;;;;;;14.40;99.90;;;;;;5013912;28;19910;-73
2022/07/12 04:36:38;;;;;;;;;;;14.50;99.90;;;;;;5013772;28;19916;-73
2022/07/12 04:39:04;;;;;;;;;;;14.50;99.90;;;;;;5013425;28;20040;-74
2022/07/12 04:41:31;;;;;;;;;;;14.50;99.90;;;;;;5013470;28;19913;-74
2022/07/12 04:43:58;;;;;;;;;;;14.60;99.90;;;;;;5013803;28;20008;-74
2022/07/12 04:46:25;;;;;;;;;;;14.60;99.90;;;;;;5013777;28;19956;-74
2022/07/12 04:48:51;;;;;;;;;;;14.50;99.90;;;;;;5013620;28;19962;-73
2022/07/12 04:51:18;;;;;;;;;;;14.50;99.90;;;;;;5013671;28;19917;-75
2022/07/12 04:53:45;;;;;;;;;;;14.40;99.90;;;;;;5013477;28;19916;-73
2022/07/12 04:56:11;;;;;;;;;;;14.30;99.90;;;;;;5013635;28;20363;-72
2022/07/12 04:58:38;;;;;;;;;;;14.20;99.90;;;;;;5013728;28;19933;-72
2022/07/12 05:01:05;;;;;;;;;;;14.10;99.90;;;;;;5013450;28;19910;-72
2022/07/12 05:03:31;;;;;;;;;;;14.10;99.90;;;;;;5013545;28;19917;-73
2022/07/12 05:05:58;;;;;;;;;;;14.10;99.90;;;;;;5013307;28;19929;-73
2022/07/12 05:08:25;;;;;;;;;;;14.20;99.90;;;;;;5013477;28;19916;-75
2022/07/12 05:10:52;;;;;;;;;;;14.30;99.90;;;;;;5013044;28;19925;-74
2022/07/12 05:13:19;;;;;;;;;;;14.30;99.90;;;;;;5013551;28;20411;-73
2022/07/12 05:15:45;;;;;;;;;;;14.20;99.90;;;;;;5013416;28;20279;-75
2022/07/12 05:18:13;;;;;;;;;;;14.30;99.90;;;;;;5013449;28;20275;-73
2022/07/12 05:20:39;;;;;;;;;;;14.30;99.90;;;;;;5013303;28;19910;-73
2022/07/12 05:23:06;;;;;;;;;;;14.30;99.90;;;;;;5012831;28;20009;-73
2022/07/12 05:25:33;;;;;;;;;;;14.30;99.90;;;;;;5013299;28;19919;-73
2022/07/12 05:27:59;;;;;;;;;;;14.30;99.90;;;;;;5013224;28;19936;-74
2022/07/12 05:30:30;;;;;;;;;;;14.20;99.90;;;;;;5013282;28;20287;-74
2022/07/12 05:32:57;;;;;;;;;;;14.10;99.90;;;;;;5013028;28;20437;-75
2022/07/12 05:35:24;;;;;;;;;;;14.00;99.90;;;;;;5013165;28;19975;-73
2022/07/12 05:37:51;;;;;;;;;;;14.10;99.90;;;;;;5012902;28;20322;-75
2022/07/12 05:40:18;;;;;;;;;;;13.90;99.90;;;;;;5013304;28;20283;-74
2022/07/12 05:42:45;;;;;;;;;;;13.90;99.90;;;;;;5013215;28;20005;-74
2022/07/12 05:45:12;;;;;;;;;;;13.90;99.90;;;;;;5012801;28;19940;-73
2022/07/12 05:47:38;;;;;;;;;;;13.90;99.90;;;;;;5013088;28;19997;-73
2022/07/12 05:50:05;;;;;;;;;;;13.90;99.90;;;;;;5013079;28;19955;-75
2022/07/12 05:55:17;;;;;;;;;;;13.90;99.90;;;;;;5017151;28;19916;-73
2022/07/12 05:57:43;;;;;;;;;;;13.90;99.90;;;;;;5031753;28;20290;-76
2022/07/12 06:00:11;;;;;;;;;;;13.80;99.90;;;;;;5016489;28;20351;-75
2022/07/12 06:02:37;;;;;;;;;;;13.90;99.90;;;;;;5016572;28;19909;-72
2022/07/12 06:05:04;;;;;;;;;;;13.80;99.90;;;;;;5016232;28;19929;-72
2022/07/12 06:07:31;;;;;;;;;;;13.80;99.90;;;;;;5016789;28;20011;-72
2022/07/12 06:09:58;;;;;;;;;;;13.70;99.90;;;;;;5016440;28;20286;-75
2022/07/12 06:12:24;;;;;;;;;;;13.70;99.90;;;;;;5016363;28;19999;-75
2022/07/12 06:14:51;;;;;;;;;;;13.60;99.90;;;;;;5016029;28;19957;-75
2022/07/12 06:17:22;;;;;;;;;;;13.60;99.90;;;;;;5016276;28;19972;-77
2022/07/12 06:19:49;;;;;;;;;;;13.60;99.90;;;;;;5016141;28;19921;-74
2022/07/12 06:22:15;;;;;;;;;;;13.50;99.90;;;;;;5016091;28;19916;-73
2022/07/12 06:24:42;;;;;;;;;;;13.40;99.90;;;;;;5016190;28;19959;-75
2022/07/12 06:27:09;;;;;;;;;;;13.50;99.90;;;;;;5015768;28;19937;-74
2022/07/12 06:29:35;;;;;;;;;;;13.40;99.90;;;;;;5016108;28;19916;-74
2022/07/12 06:32:02;;;;;;;;;;;13.40;99.90;;;;;;5016044;28;20359;-75
2022/07/12 06:34:29;;;;;;;;;;;13.30;99.90;;;;;;5016056;28;20375;-74
2022/07/12 06:36:56;;;;;;;;;;;13.20;99.90;;;;;;5014303;28;19917;-74
2022/07/12 06:39:22;;;;;;;;;;;13.10;99.90;;;;;;5015890;28;19909;-76
2022/07/12 06:41:49;;;;;;;;;;;13.00;99.90;;;;;;5016035;28;19909;-74
2022/07/12 06:44:16;;;;;;;;;;;13.00;99.90;;;;;;5015724;28;19910;-75
2022/07/12 06:46:42;;;;;;;;;;;13.00;99.90;;;;;;5015848;28;19910;-73
2022/07/12 06:49:09;;;;;;;;;;;12.90;99.90;;;;;;5015581;28;19916;-75
2022/07/12 06:51:38;;;;;;;;;;;13.00;99.90;;;;;;5015342;28;19944;-75
2022/07/12 06:54:05;;;;;;;;;;;13.00;99.90;;;;;;5015685;28;19917;-74
2022/07/12 06:56:32;;;;;;;;;;;12.90;99.90;;;;;;5015430;28;20019;-74
2022/07/12 06:58:59;;;;;;;;;;;12.90;99.90;;;;;;5015114;28;19941;-73
2022/07/12 07:01:26;;;;;;;;;;;13.00;99.90;;;;;;5015501;28;20382;-75
2022/07/12 07:03:52;;;;;;;;;;;13.00;99.90;;;;;;5014763;28;19924;-74
2022/07/12 07:06:19;;;;;;;;;;;13.00;99.90;;;;;;5015148;28;19910;-74
2022/07/12 07:08:46;;;;;;;;;;;13.00;99.90;;;;;;5015089;28;19914;-74
2022/07/12 07:11:13;;;;;;;;;;;12.90;99.90;;;;;;5014934;28;20422;-76
2022/07/12 07:13:39;;;;;;;;;;;12.90;99.90;;;;;;5015366;28;20655;-74
2022/07/12 07:16:06;;;;;;;;;;;12.90;99.90;;;;;;5015074;28;19917;-76
2022/07/12 07:18:37;;;;;;;;;;;12.80;99.90;;;;;;5014332;28;20220;-75
2022/07/12 07:21:03;;;;;;;;;;;12.70;99.90;;;;;;5014861;28;19913;-74
2022/07/12 07:23:30;;;;;;;;;;;12.80;99.90;;;;;;5014810;28;20282;-74
2022/07/12 07:25:57;;;;;;;;;;;12.80;99.90;;;;;;5014955;28;19935;-75
2022/07/12 07:28:24;;;;;;;;;;;12.80;99.90;;;;;;5014971;28;20356;-74
2022/07/12 07:30:53;;;;;;;;;;;12.70;99.90;;;;;;5014879;28;19952;-74
2022/07/12 07:33:23;;;;;;;;;;;12.70;99.90;;;;;;5014667;28;19913;-76
2022/07/12 07:35:50;;;;;;;;;;;12.70;99.90;;;;;;5014622;28;19910;-74
2022/07/12 07:38:18;;;;;;;;;;;12.70;99.90;;;;;;5014596;28;19909;-74
2022/07/12 07:40:45;;;;;;;;;;;12.60;99.90;;;;;;5014654;28;20016;-75
2022/07/12 07:43:12;;;;;;;;;;;12.60;99.90;;;;;;5014410;28;19972;-75
2022/07/12 07:45:38;;;;;;;;;;;12.50;99.90;;;;;;5014361;28;19917;-73
2022/07/12 07:48:05;;;;;;;;;;;12.50;99.90;;;;;;5014451;28;19910;-75
2022/07/12 07:50:32;;;;;;;;;;;12.40;99.90;;;;;;5014592;28;20279;-76
2022/07/12 07:52:59;;;;;;;;;;;12.40;99.90;;;;;;5012776;28;20004;-76
2022/07/12 07:55:26;;;;;;;;;;;12.30;99.90;;;;;;5014466;28;20271;-74
2022/07/12 07:57:53;;;;;;;;;;;12.30;99.90;;;;;;5014245;28;19919;-74
2022/07/12 08:00:20;;;;;;;;;;;12.30;99.90;;;;;;5014205;28;19956;-75
2022/07/12 08:02:46;;;;;;;;;;;12.30;99.90;;;;;;5014174;28;19910;-75
2022/07/12 08:05:13;;;;;;;;;;;12.30;99.90;;;;;;5013781;28;19933;-74
2022/07/12 08:07:41;;;;;;;;;;;12.30;99.90;;;;;;5013990;28;20008;-74
2022/07/12 08:10:08;;;;;;;;;;;12.30;99.90;;;;;;5014191;28;19922;-74
2022/07/12 08:12:34;;;;;;;;;;;12.30;99.90;;;;;;5014248;28;19913;-73
2022/07/12 08:15:01;;;;;;;;;;;12.30;99.90;;;;;;5013147;28;19916;-72
2022/07/12 08:17:28;;;;;;;;;;;12.20;99.90;;;;;;5014172;28;20380;-72
2022/07/12 08:19:55;;;;;;;;;;;12.20;99.90;;;;;;5014061;28;19917;-75
2022/07/12 08:22:21;;;;;;;;;;;12.20;99.90;;;;;;5013683;28;19909;-72
2022/07/12 08:24:49;;;;;;;;;;;12.20;99.90;;;;;;5013919;28;19910;-73
2022/07/12 08:27:16;;;;;;;;;;;12.20;99.90;;;;;;5013661;28;19910;-73
2022/07/12 08:29:43;;;;;;;;;;;12.10;99.90;;;;;;5013692;28;20307;-73
2022/07/12 08:32:10;;;;;;;;;;;12.10;99.90;;;;;;5013818;28;19924;-74
2022/07/12 08:34:36;;;;;;;;;;;12.10;99.90;;;;;;5013767;28;19910;-74
2022/07/12 08:37:03;;;;;;;;;;;12.10;99.90;;;;;;5013520;28;19916;-73
2022/07/12 08:39:30;;;;;;;;;;;12.10;99.90;;;;;;5013112;28;19917;-74
2022/07/12 08:41:56;;;;;;;;;;;12.20;99.90;;;;;;5013728;28;19909;-73
2022/07/12 08:44:23;;;;;;;;;;;12.20;99.90;;;;;;5013547;28;20327;-73
2022/07/12 08:46:52;;;;;;;;;;;12.10;99.90;;;;;;5011396;28;20372;-73
2022/07/12 08:49:19;;;;;;;;;;;12.10;99.90;;;;;;5012989;28;19956;-72
2022/07/12 08:51:45;;;;;;;;;;;12.10;99.90;;;;;;5013476;28;19927;-73
2022/07/12 08:54:12;;;;;;;;;;;12.10;99.90;;;;;;5013604;28;20001;-73
2022/07/12 08:56:40;;;;;;;;;;;12.10;99.90;;;;;;5013488;28;19909;-72
2022/07/12 08:59:14;;;;;;;;;;;12.10;99.90;;;;;;5013346;28;19910;-72
2022/07/12 09:01:50;;;;;;;;;;;12.20;99.90;;;;;;5013369;28;19932;-73
2022/07/12 09:04:35;;;;;;;;;;;12.20;99.90;;;;;;4993848;28;19914;-74
2022/07/12 09:07:14;;;;;;;;;;;12.20;99.90;;;;;;4996399;28;19910;-74
2022/07/12 09:09:52;;;;;;;;;;;12.20;99.90;;;;;;5013285;28;19910;-75
2022/07/12 09:12:23;;;;;;;;;;;12.30;99.90;;;;;;5013580;28;19917;-74
2022/07/12 09:14:53;;;;;;;;;;;12.30;99.90;;;;;;5013383;28;20323;-72
2022/07/12 09:17:23;;;;;;;;;;;12.40;99.90;;;;;;4995682;28;19916;-73
2022/07/12 09:20:05;;;;;;;;;;;12.40;99.90;;;;;;5027153;28;20324;-73
2022/07/12 09:22:57;;;;;;;;;;;12.40;99.90;;;;;;5010907;28;19959;-75
2022/07/12 09:25:23;;;;;;;;;;;12.30;99.90;;;;;;5012934;28;19917;-75
2022/07/12 09:27:59;;;;;;;;;;;12.20;99.90;;;;;;5017358;28;19916;-74
2022/07/12 09:30:27;;;;;;;;;;;12.20;99.90;;;;;;5017211;28;20351;-73
2022/07/12 09:38:26;;;;;;;;;;;12.10;99.90;;;;;;5017449;28;19972;-72
2022/07/12 09:40:55;;;;;;;;;;;12.10;99.90;;;;;;5016657;28;19913;-73
2022/07/12 09:43:23;;;;;;;;;;;12.10;99.90;;;;;;5016894;28;19917;-74
2022/07/12 09:45:49;;;;;;;;;;;12.10;99.90;;;;;;5017040;28;19953;-73
2022/07/12 09:48:17;;;;;;;;;;;12.10;99.90;;;;;;5016781;28;20415;-74
2022/07/12 09:50:46;;;;;;;;;;;12.10;99.90;;;;;;5016619;28;19929;-73
2022/07/12 09:53:15;;;;;;;;;;;12.00;99.90;;;;;;5016572;28;19914;-73
2022/07/12 09:55:43;;;;;;;;;;;11.90;99.90;;;;;;5016736;28;19909;-73
2022/07/12 09:58:12;;;;;;;;;;;11.90;99.90;;;;;;5016624;28;19913;-73
2022/07/12 10:00:39;;;;;;;;;;;11.90;99.90;;;;;;5016674;28;20012;-72
2022/07/12 10:03:08;;;;;;;;;;;11.90;99.90;;;;;;5016368;28;19913;-73
2022/07/12 10:05:35;;;;;;;;;;;11.90;99.90;;;;;;5016298;28;20006;-72
2022/07/12 10:08:02;;;;;;;;;;;11.90;99.90;;;;;;5016433;28;19909;-73
2022/07/12 10:10:29;;;;;;;;;;;11.80;99.90;;;;;;5016265;28;20075;-72
2022/07/12 10:12:56;;;;;;;;;;;11.90;99.90;;;;;;5016216;28;20000;-72
2022/07/12 10:15:25;;;;;;;;;;;11.80;99.90;;;;;;5016394;28;19917;-73
2022/07/12 10:17:58;;;;;;;;;;;11.80;99.90;;;;;;5016117;28;19939;-73
2022/07/12 10:20:29;;;;;;;;;;;11.90;99.90;;;;;;5016260;28;19910;-72
2022/07/12 10:22:56;;;;;;;;;;;11.90;99.90;;;;;;5015720;28;19917;-73
2022/07/12 10:25:26;;;;;;;;;;;12.00;99.90;;;;;;5016214;28;19913;-73
2022/07/12 10:27:53;;;;;;;;;;;12.00;99.90;;;;;;5014614;28;19957;-72
2022/07/12 10:30:23;;;;;;;;;;;12.00;99.90;;;;;;5014005;28;19910;-72
2022/07/12 10:32:53;;;;;;;;;;;12.00;99.90;;;;;;5013702;28;19929;-73
2022/07/12 10:35:21;;;;;;;;;;;11.90;99.90;;;;;;5014292;28;20348;-73
2022/07/12 10:38:05;;;;;;;;;;;11.90;99.90;;;;;;5013082;28;20338;-72
2022/07/12 10:40:35;;;;;;;;;;;11.80;99.90;;;;;;5013846;28;19914;-73
2022/07/12 10:43:03;;;;;;;;;;;11.80;99.90;;;;;;5013231;28;19910;-72
2022/07/12 10:45:40;;;;;;;;;;;11.80;99.90;;;;;;5013462;28;19948;-72
2022/07/12 10:48:08;;;;;;;;;;;11.80;99.90;;;;;;5013631;28;19934;-72
2022/07/12 10:51:00;;;;;;;;;;;11.80;99.90;;;;;;5011697;28;20334;-74
2022/07/12 10:53:29;;;;;;;;;;;11.90;99.90;;;;;;5013458;28;19913;-75
2022/07/12 10:56:05;;;;;;;;;;;12.00;99.90;;;;;;5013657;28;19913;-73
2022/07/12 10:58:33;;;;;;;;;;;12.10;99.90;;;;;;5013482;28;19999;-74
2022/07/12 11:01:02;;;;;;;;;;;12.00;99.90;;;;;;5013027;28;19972;-73
2022/07/12 11:03:35;;;;;;;;;;;12.00;99.90;;;;;;5012538;28;19933;-73
2022/07/12 11:06:05;;;;;;;;;;;11.90;99.90;;;;;;5013121;28;19922;-72
2022/07/12 11:08:34;;;;;;;;;;;11.80;99.90;;;;;;5013244;28;19999;-74
2022/07/12 11:11:01;;;;;;;;;;;11.90;99.90;;;;;;5012713;28;19929;-73
2022/07/12 11:13:28;;;;;;;;;;;11.90;99.90;;;;;;5013018;28;19909;-72
2022/07/12 11:16:01;;;;;;;;;;;11.90;99.90;;;;;;5012876;28;19955;-74
2022/07/12 11:18:31;;;;;;;;;;;11.90;99.90;;;;;;5012542;28;20423;-72
2022/07/12 11:20:58;;;;;;;;;;;11.90;99.90;;;;;;5013133;28;20055;-72
2022/07/12 11:23:28;;;;;;;;;;;11.90;99.90;;;;;;5012855;28;19917;-72
2022/07/12 11:25:58;;;;;;;;;;;12.00;99.90;;;;;;5013154;28;19910;-72
2022/07/12 11:28:25;;;;;;;;;;;12.10;99.90;;;;;;5012640;28;19909;-72
2022/07/12 11:30:52;;;;;;;;;;;12.10;99.90;;;;;;5012241;28;20283;-73
2022/07/12 11:33:19;;;;;;;;;;;12.10;99.90;;;;;;5012305;28;20375;-72
2022/07/12 11:35:46;;;;;;;;;;;12.00;99.90;;;;;;5012500;28;19924;-73
2022/07/12 11:38:13;;;;;;;;;;;12.00;99.90;;;;;;5012864;28;20109;-72
2022/07/12 11:40:40;;;;;;;;;;;12.10;99.90;;;;;;5012633;28;19914;-72
2022/07/12 11:43:06;;;;;;;;;;;12.00;99.90;;;;;;5011654;28;19913;-73
2022/07/12 11:45:34;;;;;;;;;;;12.00;99.90;;;;;;5012804;28;20426;-73
2022/07/12 11:48:02;;;;;;;;;;;12.10;99.90;;;;;;5011952;28;20375;-73
2022/07/12 11:50:34;;;;;;;;;;;12.10;99.90;;;;;;5011255;28;19971;-72
2022/07/12 11:53:00;;;;;;;;;;;12.10;99.90;;;;;;5012266;28;20327;-72
2022/07/12 11:55:27;;;;;;;;;;;12.10;99.90;;;;;;5011925;28;19949;-72
2022/07/12 11:58:14;;;;;;;;;;;12.10;99.90;;;;;;5012194;28;19920;-72
2022/07/12 12:00:41;;;;;;;;;;;12.10;99.90;;;;;;5012008;28;19910;-74
2022/07/12 12:03:08;;;;;;;;;;;12.10;99.90;;;;;;5011392;28;19972;-73
2022/07/12 12:05:36;;;;;;;;;;;12.10;99.90;;;;;;5007290;28;19929;-73
2022/07/12 12:08:04;;;;;;;;;;;12.10;99.90;;;;;;4992240;28;20382;-73
2022/07/12 12:10:31;;;;;;;;;;;12.10;99.90;;;;;;4992379;28;19964;-72
2022/07/12 12:12:58;;;;;;;;;;;12.10;99.90;;;;;;4992571;28;19968;-73
2022/07/12 12:15:25;;;;;;;;;;;12.10;99.90;;;;;;4992360;28;19939;-73
2022/07/12 12:17:51;;;;;;;;;;;12.10;99.90;;;;;;4991981;28;19965;-73
2022/07/12 12:20:22;;;;;;;;;;;12.10;99.90;;;;;;4992376;28;19992;-73
2022/07/12 12:22:50;;;;;;;;;;;12.10;99.90;;;;;;4992369;28;19914;-73
2022/07/12 12:25:17;;;;;;;;;;;12.10;99.90;;;;;;4992365;28;19914;-73
2022/07/12 12:27:45;;;;;;;;;;;12.10;99.90;;;;;;4992209;28;19917;-74
2022/07/12 12:30:12;;;;;;;;;;;12.00;99.90;;;;;;4992036;28;19965;-74
2022/07/12 12:32:47;;;;;;;;;;;12.00;99.90;;;;;;4991617;28;19917;-74
2022/07/12 12:35:15;;;;;;;;;;;11.90;99.90;;;;;;4991461;28;19960;-73
2022/07/12 12:37:49;;;;;;;;;;;11.90;99.90;;;;;;4991795;28;20423;-75
2022/07/12 12:40:20;;;;;;;;;;;11.90;99.90;;;;;;4992150;28;19960;-74
2022/07/12 12:42:47;;;;;;;;;;;11.90;99.90;;;;;;4992360;28;19956;-74
2022/07/12 12:45:25;;;;;;;;;;;11.90;99.90;;;;;;4992129;28;19996;-76
2022/07/12 12:48:00;;;;;;;;;;;11.80;99.90;;;;;;4992029;28;19910;-75
2022/07/12 12:50:37;;;;;;;;;;;11.80;99.90;;;;;;4991957;28;19910;-75
2022/07/12 12:53:08;;;;;;;;;;;11.70;99.90;;;;;;4991836;28;19925;-74
2022/07/12 12:55:34;;;;;;;;;;;11.70;99.90;;;;;;4992055;28;19917;-77
2022/07/12 12:58:04;;;;;;;;;;;11.70;99.90;;;;;;4992015;28;19937;-74
2022/07/12 13:00:31;;;;;;;;;;;11.70;99.90;;;;;;4991259;28;19910;-76
2022/07/12 13:03:00;;;;;;;;;;;11.70;99.90;;;;;;4991893;28;20407;-74
2022/07/12 13:05:28;;;;;;;;;;;11.70;99.90;;;;;;5006502;28;19921;-73
2022/07/12 13:07:55;;;;;;;;;;;11.80;99.90;;;;;;5011611;28;19967;-73
2022/07/12 13:10:24;;;;;;;;;;;11.90;99.90;;;;;;5011407;28;19910;-73
2022/07/12 13:12:52;;;;;;;;;;;11.90;99.90;;;;;;5011305;28;19913;-74
2022/07/12 13:15:18;;;;;;;;;;;11.90;99.90;;;;;;5011208;28;19909;-76
2022/07/12 13:17:45;;;;;;;;;;;11.90;99.90;;;;;;5011617;28;20260;-76
2022/07/12 13:20:12;;;;;;;;;;;11.90;99.90;;;;;;5011310;28;19914;-74
2022/07/12 13:22:42;;;;;;;;;;;11.90;99.90;;;;;;5011468;28;19988;-75
2022/07/12 13:25:10;;;;;;;;;;;11.80;99.90;;;;;;5011317;28;20395;-73
2022/07/12 13:27:37;;;;;;;;;;;11.80;99.90;;;;;;5011152;28;19932;-76
2022/07/12 13:30:05;;;;;;;;;;;11.70;99.90;;;;;;5011420;28;20326;-76
2022/07/12 13:32:32;;;;;;;;;;;11.60;99.90;;;;;;5011323;28;19918;-76
2022/07/12 13:34:59;;;;;;;;;;;11.50;99.90;;;;;;4993453;28;19910;-77
2022/07/12 13:37:26;;;;;;;;;;;11.50;99.90;;;;;;5011432;28;19956;-74
2022/07/12 13:40:11;;;;;;;;;;;11.50;99.90;;;;;;5010922;28;19916;-74
2022/07/12 13:42:50;;;;;;;;;;;11.50;99.90;;;;;;5011225;28;19910;-75
2022/07/12 13:45:18;;;;;;;;;;;11.40;99.90;;;;;;5011240;28;20009;-75
2022/07/12 13:47:45;;;;;;;;;;;11.40;99.90;;;;;;5011211;28;20009;-75
2022/07/12 13:50:13;;;;;;;;;;;11.40;99.90;;;;;;5011167;28;19937;-74
2022/07/12 13:52:41;;;;;;;;;;;11.40;99.90;;;;;;5010864;28;19921;-76
2022/07/12 13:55:08;;;;;;;;;;;11.30;99.90;;;;;;5011012;28;20545;-76
2022/07/12 13:57:39;;;;;;;;;;;11.30;99.90;;;;;;5011060;28;19916;-75
2022/07/12 14:00:11;;;;;;;;;;;11.30;99.90;;;;;;5011211;28;19913;-75
2022/07/12 14:02:38;;;;;;;;;;;11.30;99.90;;;;;;5011098;28;19909;-77
2022/07/12 14:05:06;;;;;;;;;;;11.20;99.90;;;;;;5010730;28;20283;-75
2022/07/12 14:07:32;;;;;;;;;;;11.20;99.90;;;;;;5010837;28;20421;-75
2022/07/12 14:09:59;;;;;;;;;;;11.20;99.90;;;;;;5011013;28;19916;-76
2022/07/12 14:12:26;;;;;;;;;;;11.10;99.90;;;;;;5010935;28;19957;-75
2022/07/12 14:17:48;;;;;;;;;;;11.20;99.90;;;;;;5014508;28;19910;-74
2022/07/12 14:20:15;;;;;;;;;;;11.10;99.90;;;;;;5013925;28;19909;-77
2022/07/12 14:22:42;;;;;;;;;;;11.10;99.90;;;;;;5014357;28;19921;-73
2022/07/12 14:25:09;;;;;;;;;;;11.10;99.90;;;;;;5014114;28;19909;-74
2022/07/12 14:27:36;;;;;;;;;;;11.10;99.90;;;;;;5014365;28;20359;-76
2022/07/12 14:30:04;;;;;;;;;;;11.10;99.90;;;;;;5014092;28;20313;-76
2022/07/12 14:32:30;;;;;;;;;;;11.10;99.90;;;;;;5013806;28;20291;-73